Terre Haute International Hulman Field
KHUF : rendu visible

Aérodrome :











RETROUVEZ-NOUS SUR...

 
LOGIN :

S'inscrire | Disclaimer

   EN    FR    IT 

 









Légende :    VFR   VFR Marginal   IFR   IFR Intensif   IFR Très Intensif
Visi : 
Plafond : 
>= 8 km
>= 3000ft
5 à 8 km
1000 à 3000 ft
1500m à 5 km
500 à 1000 ft
800 à 1500m
200 à 500 ft
< 800m
< 200 ft
Symboles :   Orages  Brouillard  Fortes neiges  Fortes précipitations  Vent > 20 kt







- Altitude de l'aérodrome : 589 ft
- Code IATA : HUF


KHUF - Terre Haute International Hulman Field

DERNIER METAR :
  • 240453Z 00000KT 8SM FEW060 20/19 A3008 RMK AO2 SLP183 T02000189 402940189

METARs EXPIRÉS :
  • 240353Z 00000KT 10SM FEW060 21/19 A3009 RMK AO2 SLP186 T02110194
  • 240253Z 00000KT 10SM CLR 22/19 A3010 RMK AO2 SLP187 T02170194 53014

TAF KHUF
Valide du 24 à 00h jusqu'au 25 à 00h UTC


232320Z 2400/2424 26009KT P6SM FEW030 SCT100
FM240700 VRB03KT P6SM BKN120
FM241300 13005KT P6SM BKN050
FM241600 17006KT P6SM BKN100
FM241800 21007KT P6SM SCT200
FIR KZID / Amérique du Nord



MET'MAP, la Météo Aéronautique d'un coup d'oeil ! - Copyright ORBIFLY Décembre 2007 - Disclaimer

ORBIFLY MET'MAP TEAM :

Programmation & Développement : Alexandra Zaïnal
Conception & Développement : Baudouin d'Aumeries
Co-Programmation & Développement : Marc-Olivier Méhu
Soutien technique & logistique : Manuel Goepfert

Contact : metmap@orbifly.com




SOURCES & CREDITS :

   NOAA       Earth
Advisory